createdAt,value
2019-02-15T00:02:24.902Z,0.91
2019-02-15T00:04:54.802Z,0.77
2019-02-15T00:07:24.852Z,0.83
2019-02-15T00:09:54.897Z,0.73
2019-02-15T00:12:24.796Z,0.64
2019-02-15T00:14:54.875Z,0.64
2019-02-15T00:17:43.843Z,0.75
2019-02-15T00:20:19.743Z,0.72
2019-02-15T00:22:49.638Z,0.70
2019-02-15T00:25:19.580Z,0.78
2019-02-15T00:27:49.531Z,0.67
2019-02-15T00:30:20.479Z,0.65
2019-02-15T00:32:50.331Z,0.77
2019-02-15T00:35:20.276Z,0.70
2019-02-15T00:37:50.249Z,0.58
2019-02-15T00:40:20.179Z,0.54
2019-02-15T00:42:50.057Z,0.42
2019-02-15T00:45:23.054Z,0.43
2019-02-15T00:48:00.585Z,0.31
2019-02-15T00:50:41.379Z,0.16
2019-02-15T00:53:21.078Z,0.10
2019-02-15T00:55:57.622Z,0.02
2019-02-15T00:58:52.699Z,-0.07
2019-02-15T01:01:44.543Z,0.00
2019-02-15T01:04:27.588Z,0.07
2019-02-15T01:07:25.801Z,0.02
2019-02-15T01:10:14.645Z,-0.16
2019-02-15T01:12:51.840Z,-0.21
2019-02-15T01:15:21.750Z,-0.23
2019-02-15T01:17:51.775Z,-0.15
2019-02-15T01:20:21.801Z,-0.01
2019-02-15T01:22:51.753Z,0.10
2019-02-15T01:25:21.976Z,0.23
2019-02-15T01:28:06.367Z,0.30
2019-02-15T01:30:54.006Z,0.24
2019-02-15T01:33:41.807Z,0.16
2019-02-15T01:36:24.607Z,0.09
2019-02-15T01:39:32.880Z,0.02
2019-02-15T01:42:11.247Z,-0.06
2019-02-15T01:44:51.959Z,-0.07
2019-02-15T01:47:25.514Z,-0.21
2019-02-15T01:49:55.504Z,-0.28
2019-02-15T01:52:25.458Z,-0.24
2019-02-15T01:54:55.510Z,-0.08
2019-02-15T01:57:25.511Z,-0.10
2019-02-15T01:59:55.421Z,-0.20
2019-02-15T02:02:28.230Z,-0.26
2019-02-15T02:04:58.134Z,-0.25
2019-02-15T02:07:28.141Z,-0.26
2019-02-15T02:09:58.307Z,-0.29
2019-02-15T02:12:28.288Z,-0.36
2019-02-15T02:14:58.194Z,-0.37
2019-02-15T02:17:28.285Z,-0.20
2019-02-15T02:19:58.335Z,-0.17
2019-02-15T02:22:28.351Z,-0.10
2019-02-15T02:24:58.264Z,-0.33
2019-02-15T02:27:28.220Z,-0.55
2019-02-15T02:29:58.220Z,-0.69
2019-02-15T02:32:28.220Z,-0.67
2019-02-15T02:34:58.104Z,-0.55
2019-02-15T02:37:28.093Z,-0.47
2019-02-15T02:39:57.927Z,-0.48
2019-02-15T02:42:27.818Z,-0.49
2019-02-15T02:44:58.995Z,-0.49
2019-02-15T02:47:29.020Z,-0.46
2019-02-15T02:49:58.895Z,-0.46
2019-02-15T02:52:28.920Z,-0.37
2019-02-15T02:54:58.887Z,-0.42
2019-02-15T02:57:28.907Z,-0.44
2019-02-15T02:59:58.927Z,-0.50
2019-02-15T03:02:28.832Z,-0.55
2019-02-15T03:04:58.816Z,-0.64
2019-02-15T03:07:28.786Z,-0.69
2019-02-15T03:09:58.663Z,-0.74
2019-02-15T03:12:28.515Z,-0.85
2019-02-15T03:14:58.510Z,-0.85
2019-02-15T03:17:28.419Z,-0.89
2019-02-15T03:19:58.342Z,-0.88
2019-02-15T03:22:28.252Z,-0.90
2019-02-15T03:24:58.341Z,-0.89
2019-02-15T03:27:28.286Z,-0.95
2019-02-15T03:29:58.170Z,-1.00
2019-02-15T03:32:28.022Z,-0.96
2019-02-15T03:34:57.959Z,-0.92
2019-02-15T03:37:46.824Z,-0.79
2019-02-15T03:40:35.727Z,-0.81
2019-02-15T03:43:05.732Z,-0.90
2019-02-15T03:45:35.689Z,-0.79
2019-02-15T03:48:05.734Z,-0.82
2019-02-15T03:50:35.704Z,-0.87
2019-02-15T03:53:05.644Z,-0.80
2019-02-15T03:55:35.576Z,-0.72
2019-02-15T03:58:06.585Z,-0.81
2019-02-15T04:00:36.692Z,-0.89
2019-02-15T04:03:06.716Z,-0.89
2019-02-15T04:05:36.639Z,-0.82
2019-02-15T04:08:07.687Z,-0.75
2019-02-15T04:10:37.686Z,-0.76
2019-02-15T04:13:07.620Z,-0.86
2019-02-15T04:15:37.574Z,-0.72
2019-02-15T04:18:07.433Z,-0.82
2019-02-15T04:20:37.308Z,-0.86
2019-02-15T04:23:07.363Z,-0.89
2019-02-15T04:25:37.387Z,-0.90
2019-02-15T04:28:07.374Z,-0.92
2019-02-15T04:30:37.394Z,-0.95
2019-02-15T04:33:07.391Z,-0.97
2019-02-15T04:35:37.260Z,-0.97
2019-02-15T04:38:07.210Z,-0.95
2019-02-15T04:40:37.123Z,-0.83
2019-02-15T04:43:07.101Z,-0.85
2019-02-15T04:45:36.992Z,-0.90
2019-02-15T04:48:06.961Z,-0.88
2019-02-15T04:50:36.797Z,-0.82
2019-02-15T04:53:06.813Z,-0.89
2019-02-15T04:55:36.580Z,-0.95
2019-02-15T04:58:06.485Z,-0.97
2019-02-15T05:00:36.309Z,-0.96
2019-02-15T05:03:06.176Z,-0.97
2019-02-15T05:05:36.096Z,-1.02
2019-02-15T05:08:06.044Z,-1.03
2019-02-15T05:10:35.901Z,-0.90
2019-02-15T05:13:05.891Z,-0.88
2019-02-15T05:15:35.783Z,-0.90
2019-02-15T05:18:05.723Z,-0.91
2019-02-15T05:20:35.594Z,-0.87
2019-02-15T05:23:05.549Z,-0.97
2019-02-15T05:25:35.388Z,-1.03
2019-02-15T05:28:05.279Z,-1.04
2019-02-15T05:30:35.235Z,-1.06
2019-02-15T05:33:05.068Z,-1.17
2019-02-15T05:35:34.998Z,-1.21
2019-02-15T05:38:05.907Z,-1.27
2019-02-15T05:40:35.875Z,-1.28
2019-02-15T05:43:05.711Z,-1.28
2019-02-15T05:45:35.623Z,-1.21
2019-02-15T05:48:05.560Z,-1.21
2019-02-15T05:50:35.516Z,-1.20
2019-02-15T05:53:05.377Z,-1.13
2019-02-15T05:55:35.316Z,-1.07
2019-02-15T05:58:05.204Z,-1.05
2019-02-15T06:00:37.310Z,-1.06
2019-02-15T06:03:06.815Z,-1.12
2019-02-15T06:05:36.642Z,-1.15
2019-02-15T06:08:06.519Z,-1.19
2019-02-15T06:10:36.412Z,-1.16
2019-02-15T06:13:06.300Z,-1.19
2019-02-15T06:15:36.291Z,-1.15
2019-02-15T06:18:06.242Z,-1.16
2019-02-15T06:20:39.820Z,-1.16
2019-02-15T06:23:09.702Z,-1.16
2019-02-15T06:25:39.530Z,-1.15
2019-02-15T06:28:10.517Z,-1.15
2019-02-15T06:30:40.705Z,-1.14
2019-02-15T06:33:11.036Z,-1.14
2019-02-15T06:35:40.880Z,-1.14
2019-02-15T06:40:46.513Z,-1.08
2019-02-15T06:43:16.505Z,-1.01
2019-02-15T06:45:46.436Z,-0.89
2019-02-15T06:48:16.263Z,-0.89
2019-02-15T06:50:46.150Z,-0.83
2019-02-15T06:53:16.071Z,-0.76
2019-02-15T06:55:46.092Z,-0.76
2019-02-15T06:58:15.930Z,-0.70
2019-02-15T07:01:07.824Z,-0.69
2019-02-15T07:03:51.175Z,-0.65
2019-02-15T07:06:21.127Z,-0.61
2019-02-15T07:08:51.036Z,-0.54
2019-02-15T07:11:21.097Z,-0.57
2019-02-15T07:13:50.934Z,-0.48
2019-02-15T07:16:20.802Z,-0.49
2019-02-15T07:18:50.640Z,-0.56
2019-02-15T07:21:20.627Z,-0.43
2019-02-15T07:23:50.605Z,-0.38
2019-02-15T07:26:20.595Z,-0.33
2019-02-15T07:28:50.430Z,-0.21
2019-02-15T07:31:20.351Z,0.01
2019-02-15T07:33:50.215Z,0.25
2019-02-15T07:36:20.176Z,1.27
2019-02-15T07:38:50.037Z,4.97
2019-02-15T07:41:21.022Z,6.37
2019-02-15T07:43:50.892Z,7.28
2019-02-15T07:46:20.836Z,7.01
2019-02-15T07:48:50.795Z,6.12
2019-02-15T07:51:20.725Z,5.33
2019-02-15T07:53:50.690Z,4.42
2019-02-15T07:56:20.690Z,4.87
2019-02-15T07:58:50.594Z,5.41
2019-02-15T08:01:20.541Z,5.75
2019-02-15T08:03:50.359Z,5.67
2019-02-15T08:06:20.302Z,5.92
2019-02-15T08:08:50.124Z,6.27
2019-02-15T08:11:20.064Z,6.58
2019-02-15T08:13:49.926Z,6.65
2019-02-15T08:16:19.957Z,6.20
2019-02-15T08:18:50.236Z,6.38
2019-02-15T08:21:21.783Z,6.35
2019-02-15T08:23:51.731Z,6.76
2019-02-15T08:26:21.601Z,6.93
2019-02-15T08:28:51.429Z,6.82
2019-02-15T08:31:21.373Z,6.81
2019-02-15T08:33:51.190Z,6.52
2019-02-15T08:36:21.119Z,6.49
2019-02-15T08:38:51.029Z,6.68
2019-02-15T08:41:20.879Z,5.85
2019-02-15T08:43:50.735Z,5.25
2019-02-15T08:46:20.688Z,4.94
2019-02-15T08:48:50.565Z,4.87
2019-02-15T08:51:20.478Z,4.88
2019-02-15T08:53:50.511Z,4.90
2019-02-15T08:56:20.532Z,5.00
2019-02-15T08:58:50.405Z,5.04
2019-02-15T09:01:20.247Z,5.08
2019-02-15T09:03:50.122Z,5.18
2019-02-15T09:06:20.921Z,5.43
2019-02-15T09:08:50.943Z,5.47
2019-02-15T09:11:20.856Z,5.47
2019-02-15T09:13:51.804Z,5.65
2019-02-15T09:16:21.707Z,5.93
2019-02-15T09:18:51.653Z,6.11
2019-02-15T09:21:21.610Z,6.26
2019-02-15T09:23:51.561Z,6.30
2019-02-15T09:26:21.416Z,6.31
2019-02-15T09:28:58.226Z,6.36
2019-02-15T09:31:28.196Z,6.42
2019-02-15T09:33:58.158Z,6.49
2019-02-15T09:36:28.027Z,6.55
2019-02-15T09:38:57.921Z,6.70
2019-02-15T09:41:27.851Z,6.84
2019-02-15T09:43:57.745Z,6.93
2019-02-15T09:46:27.653Z,7.03
2019-02-15T09:48:57.484Z,7.23
2019-02-15T09:51:27.411Z,7.19
2019-02-15T09:53:57.235Z,7.38
2019-02-15T09:56:27.179Z,7.53
2019-02-15T09:58:57.024Z,7.58
2019-02-15T10:01:27.024Z,7.42
2019-02-15T10:03:56.840Z,7.59
2019-02-15T10:06:26.802Z,7.60
2019-02-15T10:08:56.619Z,7.78
2019-02-15T10:11:26.574Z,8.00
2019-02-15T10:13:56.539Z,8.17
2019-02-15T10:16:29.722Z,8.21
2019-02-15T10:18:58.189Z,8.21
2019-02-15T10:21:29.234Z,8.27
2019-02-15T10:23:59.087Z,8.46
2019-02-15T10:26:28.950Z,8.70
2019-02-15T10:28:58.813Z,8.92
2019-02-15T10:31:29.268Z,9.21
2019-02-15T10:33:59.163Z,9.10
2019-02-15T10:36:28.982Z,9.14
2019-02-15T10:38:58.944Z,9.44
2019-02-15T10:41:28.834Z,9.26
2019-02-15T10:43:58.749Z,9.55
2019-02-15T10:46:37.486Z,9.81
2019-02-15T10:49:00.354Z,9.99
2019-02-15T10:51:30.242Z,10.13
2019-02-15T10:54:00.217Z,10.34
2019-02-15T10:56:30.133Z,10.49
2019-02-15T10:59:00.041Z,10.55
2019-02-15T11:01:30.092Z,10.65
2019-02-15T11:03:59.924Z,10.68
2019-02-15T11:06:29.800Z,10.68
2019-02-15T11:08:59.651Z,10.75
2019-02-15T11:11:29.708Z,10.86
2019-02-15T11:13:59.532Z,11.07
2019-02-15T11:16:29.478Z,11.25
2019-02-15T11:18:59.418Z,11.31
2019-02-15T11:21:29.409Z,11.48
2019-02-15T11:23:59.429Z,11.25
2019-02-15T11:26:29.260Z,11.24
2019-02-15T11:28:59.224Z,11.36
2019-02-15T11:31:29.165Z,11.51
2019-02-15T11:33:59.055Z,11.52
2019-02-15T11:36:29.890Z,11.82
2019-02-15T11:38:59.984Z,11.97
2019-02-15T11:41:29.880Z,11.99
2019-02-15T11:43:59.777Z,12.15
2019-02-15T11:46:29.765Z,12.22
2019-02-15T11:48:59.682Z,12.33
2019-02-15T11:51:29.708Z,12.51
2019-02-15T11:53:59.624Z,12.43
2019-02-15T11:56:29.654Z,12.58
2019-02-15T11:58:59.566Z,12.61
2019-02-15T12:01:29.507Z,12.76
2019-02-15T12:03:59.333Z,12.74
2019-02-15T12:06:29.625Z,12.71
2019-02-15T12:08:59.522Z,12.87
2019-02-15T12:11:29.479Z,12.84
2019-02-15T12:13:59.307Z,12.93
2019-02-15T12:16:29.276Z,13.04
2019-02-15T12:18:59.192Z,13.25
2019-02-15T12:21:29.175Z,13.45
2019-02-15T12:23:59.073Z,13.45
2019-02-15T12:26:28.891Z,13.27
2019-02-15T12:28:58.865Z,13.20
2019-02-15T12:31:28.860Z,13.50
2019-02-15T12:33:58.729Z,13.73
2019-02-15T12:36:28.582Z,13.86
2019-02-15T12:38:58.458Z,13.91
2019-02-15T12:41:28.353Z,14.29
2019-02-15T12:43:58.331Z,14.43
2019-02-15T12:46:28.284Z,14.27
2019-02-15T12:48:58.240Z,13.98
2019-02-15T12:51:28.285Z,14.32
2019-02-15T12:53:58.285Z,14.42
2019-02-15T12:56:28.255Z,14.72
2019-02-15T12:58:58.220Z,14.88
2019-02-15T13:01:28.086Z,14.54
2019-02-15T13:03:58.016Z,14.59
2019-02-15T13:06:28.907Z,14.70
2019-02-15T13:08:59.026Z,14.63
2019-02-15T13:11:28.974Z,15.04
2019-02-15T13:13:58.899Z,14.92
2019-02-15T13:16:28.927Z,15.30
2019-02-15T13:18:58.867Z,15.65
2019-02-15T13:21:28.749Z,15.34
2019-02-15T13:23:58.875Z,15.28
2019-02-15T13:26:29.011Z,15.34
2019-02-15T13:28:58.892Z,15.52
2019-02-15T13:31:28.777Z,15.48
2019-02-15T13:33:58.794Z,15.34
2019-02-15T13:36:28.620Z,15.14
2019-02-15T13:38:58.584Z,15.34
2019-02-15T13:41:28.492Z,15.43
2019-02-15T13:43:58.448Z,15.67
2019-02-15T13:46:28.361Z,15.66
2019-02-15T13:48:58.306Z,15.48
2019-02-15T13:51:28.304Z,15.38
2019-02-15T13:53:58.151Z,15.39
2019-02-15T13:56:28.039Z,15.51
2019-02-15T13:58:58.092Z,15.51
2019-02-15T14:01:28.123Z,15.28
2019-02-15T14:03:58.049Z,15.29
2019-02-15T14:06:27.983Z,15.35
2019-02-15T14:08:58.024Z,15.19
2019-02-15T14:11:27.969Z,15.34
2019-02-15T14:13:57.912Z,15.34
2019-02-15T14:16:27.801Z,15.18
2019-02-15T14:18:57.642Z,15.10
2019-02-15T14:21:27.539Z,15.06
2019-02-15T14:23:57.393Z,15.15
2019-02-15T14:26:27.275Z,15.19
2019-02-15T14:28:57.330Z,15.05
2019-02-15T14:31:27.287Z,15.15
2019-02-15T14:33:57.278Z,15.35
2019-02-15T14:36:27.263Z,17.63
2019-02-15T14:38:57.143Z,18.77
2019-02-15T14:41:27.185Z,17.54
2019-02-15T14:43:57.060Z,17.05
2019-02-15T14:46:27.254Z,16.59
2019-02-15T14:48:57.124Z,16.63
2019-02-15T14:51:26.979Z,16.36
2019-02-15T14:53:56.923Z,15.77
2019-02-15T14:56:26.907Z,15.36
2019-02-15T14:58:56.887Z,15.06
2019-02-15T15:01:26.778Z,14.93
2019-02-15T15:03:56.795Z,14.94
2019-02-15T15:06:26.779Z,14.82
2019-02-15T15:08:56.651Z,14.90
2019-02-15T15:11:26.595Z,14.99
2019-02-15T15:13:56.453Z,14.59
2019-02-15T15:16:26.393Z,14.41
2019-02-15T15:18:56.307Z,14.20
2019-02-15T15:21:26.194Z,14.09
2019-02-15T15:23:56.046Z,13.53
2019-02-15T15:26:25.916Z,13.08
2019-02-15T15:28:55.820Z,12.98
2019-02-15T15:31:25.765Z,13.01
2019-02-15T15:33:55.655Z,12.84
2019-02-15T15:36:25.494Z,12.89
2019-02-15T15:38:55.377Z,12.73
2019-02-15T15:41:25.211Z,12.57
2019-02-15T15:43:55.199Z,12.67
2019-02-15T15:46:25.083Z,12.36
2019-02-15T15:48:54.969Z,12.24
2019-02-15T15:51:24.892Z,11.98
2019-02-15T15:53:54.810Z,11.94
2019-02-15T15:56:24.729Z,11.87
2019-02-15T15:58:54.602Z,11.80
2019-02-15T16:01:24.516Z,11.68
2019-02-15T16:03:54.435Z,11.43
2019-02-15T16:06:24.865Z,11.22
2019-02-15T16:08:54.806Z,11.02
2019-02-15T16:11:24.649Z,10.84
2019-02-15T16:13:54.621Z,10.66
2019-02-15T16:16:24.637Z,10.47
2019-02-15T16:18:54.575Z,10.25
2019-02-15T16:21:24.537Z,10.03
2019-02-15T16:23:54.361Z,9.88
2019-02-15T16:26:24.361Z,9.75
2019-02-15T16:28:54.388Z,9.65
2019-02-15T16:31:24.369Z,9.54
2019-02-15T16:33:55.247Z,9.46
2019-02-15T16:36:25.337Z,9.38
2019-02-15T16:38:55.319Z,9.33
2019-02-15T16:41:25.273Z,9.31
2019-02-15T16:43:55.114Z,9.24
2019-02-15T16:46:25.100Z,9.11
2019-02-15T16:48:55.014Z,8.98
2019-02-15T16:51:24.907Z,8.87
2019-02-15T16:53:54.751Z,8.76
2019-02-15T16:56:24.730Z,8.64
2019-02-15T16:58:54.650Z,8.48
2019-02-15T17:01:24.592Z,8.38
2019-02-15T17:03:54.670Z,8.30
2019-02-15T17:06:24.697Z,8.37
2019-02-15T17:08:54.646Z,8.38
2019-02-15T17:11:24.587Z,8.30
2019-02-15T17:13:54.469Z,8.18
2019-02-15T17:16:24.286Z,8.19
2019-02-15T17:18:55.193Z,8.31
2019-02-15T17:21:25.106Z,8.19
2019-02-15T17:23:54.992Z,8.21
2019-02-15T17:26:24.822Z,8.13
2019-02-15T17:28:54.760Z,8.00
2019-02-15T17:31:24.695Z,7.90
2019-02-15T17:33:55.611Z,7.84
2019-02-15T17:36:25.593Z,7.75
2019-02-15T17:38:55.524Z,7.70
2019-02-15T17:41:26.563Z,7.67
2019-02-15T17:43:56.671Z,7.60
2019-02-15T17:46:26.559Z,7.53
2019-02-15T17:49:00.691Z,7.51
2019-02-15T17:51:28.021Z,7.49
2019-02-15T17:53:58.362Z,7.48
2019-02-15T17:56:28.399Z,7.44
2019-02-15T17:58:58.316Z,7.35
2019-02-15T18:01:28.623Z,7.28
2019-02-15T18:03:58.512Z,7.28
2019-02-15T18:06:28.709Z,7.24
2019-02-15T18:08:59.663Z,7.17
2019-02-15T18:11:29.627Z,7.11
2019-02-15T18:13:59.630Z,7.02
2019-02-15T18:16:29.614Z,6.98
2019-02-15T18:18:59.559Z,6.92
2019-02-15T18:21:29.503Z,6.83
2019-02-15T18:23:59.458Z,6.76
2019-02-15T18:26:29.304Z,6.75
2019-02-15T18:28:59.316Z,6.67
2019-02-15T18:31:29.210Z,6.60
2019-02-15T18:33:59.218Z,6.53
2019-02-15T18:36:29.217Z,6.44
2019-02-15T18:38:59.115Z,6.32
2019-02-15T18:41:29.083Z,6.30
2019-02-15T18:43:58.939Z,6.25
2019-02-15T18:46:28.975Z,6.15
2019-02-15T18:49:00.461Z,6.00
2019-02-15T18:51:30.578Z,5.82
2019-02-15T18:54:00.539Z,5.64
2019-02-15T18:56:30.359Z,5.50
2019-02-15T18:59:00.275Z,5.34
2019-02-15T19:01:30.202Z,5.13
2019-02-15T19:04:00.176Z,5.02
2019-02-15T19:06:30.115Z,4.97
2019-02-15T19:08:59.996Z,4.96
2019-02-15T19:11:30.079Z,4.84
2019-02-15T19:13:59.977Z,4.75
2019-02-15T19:16:29.885Z,4.68
2019-02-15T19:18:59.882Z,4.61
2019-02-15T19:21:29.900Z,4.56
2019-02-15T19:23:59.735Z,4.54
2019-02-15T19:26:29.681Z,4.48
2019-02-15T19:28:59.614Z,4.28
2019-02-15T19:31:29.681Z,4.11
2019-02-15T19:33:59.468Z,3.92
2019-02-15T19:36:29.445Z,3.86
2019-02-15T19:38:59.479Z,3.75
2019-02-15T19:41:29.485Z,3.69
2019-02-15T19:43:59.356Z,3.59
2019-02-15T19:46:29.310Z,3.49
2019-02-15T19:48:59.267Z,3.55
2019-02-15T19:51:29.163Z,3.54
2019-02-15T19:54:00.241Z,3.43
2019-02-15T19:56:30.254Z,3.26
2019-02-15T19:59:00.208Z,3.15
2019-02-15T20:01:30.151Z,3.06
2019-02-15T20:04:00.175Z,3.06
2019-02-15T20:06:30.246Z,2.97
2019-02-15T20:09:00.280Z,2.92
2019-02-15T20:11:30.218Z,2.92
2019-02-15T20:14:00.266Z,2.81
2019-02-15T20:16:30.271Z,2.77
2019-02-15T20:19:00.162Z,2.76
2019-02-15T20:21:30.028Z,2.73
2019-02-15T20:23:59.944Z,2.72
2019-02-15T20:26:29.826Z,2.62
2019-02-15T20:28:59.737Z,2.51
2019-02-15T20:31:29.678Z,2.38
2019-02-15T20:33:59.605Z,2.36
2019-02-15T20:36:29.634Z,2.28
2019-02-15T20:39:00.470Z,2.24
2019-02-15T20:41:30.515Z,2.23
2019-02-15T20:44:00.465Z,2.11
2019-02-15T20:46:30.459Z,1.97
2019-02-15T20:49:04.801Z,1.91
2019-02-15T20:51:31.960Z,1.89
2019-02-15T20:54:02.030Z,1.96
2019-02-15T20:56:31.927Z,2.11
2019-02-15T20:59:01.877Z,2.07
2019-02-15T21:01:31.812Z,2.14
2019-02-15T21:04:01.673Z,2.18
2019-02-15T21:06:31.503Z,2.15
2019-02-15T21:09:01.379Z,2.07
2019-02-15T21:11:31.469Z,2.05
2019-02-15T21:14:01.456Z,1.98
2019-02-15T21:16:31.380Z,1.92
2019-02-15T21:19:01.273Z,1.94
2019-02-15T21:21:31.130Z,1.99
2019-02-15T21:24:01.013Z,2.05
2019-02-15T21:26:30.926Z,2.10
2019-02-15T21:29:00.842Z,2.01
2019-02-15T21:31:30.784Z,2.00
2019-02-15T21:34:00.679Z,2.04
2019-02-15T21:36:30.561Z,2.14
2019-02-15T21:39:00.477Z,2.07
2019-02-15T21:41:30.336Z,2.03
2019-02-15T21:44:00.264Z,2.04
2019-02-15T21:46:30.174Z,2.02
2019-02-15T21:49:00.170Z,2.07
2019-02-15T21:51:30.054Z,2.05
2019-02-15T21:54:00.063Z,1.99
2019-02-15T21:56:29.984Z,1.95
2019-02-15T21:58:59.818Z,1.94
2019-02-15T22:01:29.697Z,1.87
2019-02-15T22:03:59.554Z,1.70
2019-02-15T22:06:29.498Z,1.47
2019-02-15T22:08:59.350Z,1.34
2019-02-15T22:11:29.373Z,1.40
2019-02-15T22:13:59.233Z,1.48
2019-02-15T22:16:29.099Z,1.63
2019-02-15T22:18:58.988Z,1.61
2019-02-15T22:21:28.951Z,1.55
2019-02-15T22:23:59.052Z,1.44
2019-02-15T22:26:29.010Z,1.43
2019-02-15T22:28:59.047Z,1.44
2019-02-15T22:31:29.046Z,1.42
2019-02-15T22:33:58.990Z,1.39
2019-02-15T22:36:28.846Z,1.34
2019-02-15T22:38:58.736Z,1.31
2019-02-15T22:41:28.575Z,1.24
2019-02-15T22:43:58.487Z,1.20
2019-02-15T22:46:28.475Z,1.24
2019-02-15T22:48:58.468Z,1.26
2019-02-15T22:51:28.392Z,1.23
2019-02-15T22:53:58.309Z,1.20
2019-02-15T22:56:28.533Z,1.25
2019-02-15T22:58:58.439Z,1.28
2019-02-15T23:01:28.544Z,1.25
2019-02-15T23:03:58.548Z,1.31
2019-02-15T23:06:28.518Z,1.34
2019-02-15T23:08:58.574Z,1.31
2019-02-15T23:11:28.558Z,1.34
2019-02-15T23:13:58.398Z,1.39
2019-02-15T23:16:28.413Z,1.42
2019-02-15T23:18:58.401Z,1.46
2019-02-15T23:21:28.309Z,1.41
2019-02-15T23:23:58.165Z,1.39
2019-02-15T23:26:28.096Z,1.34
2019-02-15T23:28:59.082Z,1.32
2019-02-15T23:31:29.001Z,1.28
2019-02-15T23:33:58.935Z,1.34
2019-02-15T23:36:28.873Z,1.32
2019-02-15T23:38:58.857Z,1.36
2019-02-15T23:41:28.799Z,1.51
2019-02-15T23:43:58.738Z,4.64
2019-02-15T23:46:28.731Z,6.41
2019-02-15T23:48:58.677Z,4.77
2019-02-15T23:51:28.524Z,3.66
2019-02-15T23:53:58.576Z,2.83
2019-02-15T23:56:28.486Z,2.32
